Time;durP1;ratioP1;P1;durP2;ratioP2;P2;SDS_P1;SDS_P2;PMS_P1;PMS_P2;Temp;Humidity;BMP_temperature;BMP_pressure;BME280_temperature;BME280_humidity;BME280_pressure;Samples;Min_cycle;Max_cycle;Signal;HPM_P1;HPM_P2
2021/10/19 00:01:08;;;;;;;6.63;4.67;;;;;;;6.67;73.56;100147.81;1716760;81;21089;-56
2021/10/19 00:03:35;;;;;;;6.13;4.07;;;;;;;6.63;73.55;100148.37;1718562;81;21360;-56
2021/10/19 00:06:01;;;;;;;13.43;6.17;;;;;;;6.60;73.64;100148.44;1715178;81;21067;-56
2021/10/19 00:08:28;;;;;;;11.53;5.37;;;;;;;6.57;73.52;100160.54;1719359;81;20974;-56
2021/10/19 00:10:54;;;;;;;5.70;3.53;;;;;;;6.52;73.52;100157.12;1722767;82;21665;-56
2021/10/19 00:13:22;;;;;;;7.10;3.70;;;;;;;6.47;73.70;100163.02;1718831;81;21074;-55
2021/10/19 00:15:48;;;;;;;6.57;3.07;;;;;;;6.44;73.80;100159.11;1658447;83;21277;-56
2021/10/19 00:18:14;;;;;;;3.53;2.73;;;;;;;6.43;73.90;100164.91;1718876;81;21062;-56
2021/10/19 00:20:41;;;;;;;6.30;3.13;;;;;;;6.42;74.04;100167.16;1716077;81;21156;-56
2021/10/19 00:23:07;;;;;;;11.80;3.37;;;;;;;6.43;74.18;100164.91;1719727;81;21102;-56
2021/10/19 00:25:34;;;;;;;5.97;2.90;;;;;;;6.43;74.20;100172.94;1718501;81;21510;-56
2021/10/19 00:28:00;;;;;;;7.27;3.90;;;;;;;6.44;74.22;100168.47;1721138;81;21049;-56
2021/10/19 00:30:26;;;;;;;7.80;5.07;;;;;;;6.45;74.37;100173.78;1716155;81;21105;-56
2021/10/19 00:32:53;;;;;;;10.03;3.97;;;;;;;6.48;74.45;100170.59;1721336;80;21206;-56
2021/10/19 00:35:20;;;;;;;7.70;4.93;;;;;;;6.48;74.44;100178.61;1721794;80;21068;-56
2021/10/19 00:37:46;;;;;;;12.57;4.83;;;;;;;6.47;74.45;100175.05;1663723;84;21125;-55
2021/10/19 00:40:12;;;;;;;9.00;4.43;;;;;;;6.44;74.45;100169.80;1686160;82;21703;-56
2021/10/19 00:42:39;;;;;;;8.27;4.30;;;;;;;6.42;74.47;100174.30;1686583;82;21113;-56
2021/10/19 00:45:07;;;;;;;9.10;3.30;;;;;;;6.39;74.46;100177.03;1684650;82;22184;-56
2021/10/19 00:47:34;;;;;;;5.90;4.17;;;;;;;6.35;74.50;100174.92;1693333;82;22478;-56
2021/10/19 00:50:01;;;;;;;5.80;2.60;;;;;;;6.33;74.51;100179.41;1725346;80;21754;-56
2021/10/19 00:52:28;;;;;;;5.83;2.80;;;;;;;6.32;74.53;100179.45;1721186;80;21504;-56
2021/10/19 00:54:54;;;;;;;6.87;3.10;;;;;;;6.29;74.55;100179.54;1725257;80;22278;-56
2021/10/19 00:57:21;;;;;;;8.53;3.03;;;;;;;6.26;74.54;100179.61;1725057;80;22361;-56
2021/10/19 00:59:47;;;;;;;4.70;3.57;;;;;;;6.23;74.56;100183.22;1724624;80;22715;-56
2021/10/19 01:02:14;;;;;;;6.03;2.83;;;;;;;6.20;74.45;100177.97;1726080;80;21435;-56
2021/10/19 01:04:41;;;;;;;6.07;3.97;;;;;;;6.16;74.37;100174.93;1726973;80;21018;-56
2021/10/19 01:07:08;;;;;;;6.10;4.10;;;;;;;6.12;74.37;100189.75;1725757;80;21085;-54
2021/10/19 01:09:37;;;;;;;7.53;3.80;;;;;;;6.07;74.31;100190.72;1724854;80;22851;-56
2021/10/19 01:12:09;;;;;;;6.07;4.03;;;;;;;6.02;74.37;100191.75;1724796;82;20900;-56
2021/10/19 01:14:35;;;;;;;6.13;3.40;;;;;;;5.98;74.37;100188.26;1723368;80;21141;-56
2021/10/19 01:17:04;;;;;;;4.17;3.40;;;;;;;5.92;74.28;100188.41;1728907;80;21253;-56
2021/10/19 01:19:31;;;;;;;4.83;2.50;;;;;;;5.89;74.28;100194.26;1730847;82;20967;-56
2021/10/19 01:21:59;;;;;;;8.80;2.67;;;;;;;5.84;74.30;100195.68;1727737;80;21730;-56
2021/10/19 01:24:25;;;;;;;5.37;2.83;;;;;;;5.81;74.28;100194.85;1723909;80;20929;-56
2021/10/19 01:26:52;;;;;;;4.77;2.60;;;;;;;5.78;74.34;100193.61;1723737;82;21042;-56
2021/10/19 01:29:19;;;;;;;8.10;3.43;;;;;;;5.75;74.44;100193.20;1725163;80;21055;-56
2021/10/19 01:31:53;;;;;;;9.07;4.07;;;;;;;5.74;74.37;100195.45;1721227;80;21474;-56
2021/10/19 01:34:20;;;;;;;8.00;3.60;;;;;;;5.72;74.29;100190.59;1730371;81;21322;-57
2021/10/19 01:36:46;;;;;;;5.97;3.87;;;;;;;5.69;74.21;100196.90;1728258;81;21002;-56
2021/10/19 01:39:14;;;;;;;6.37;3.80;;;;;;;5.66;74.07;100197.41;1727692;81;20923;-56
2021/10/19 01:41:45;;;;;;;4.40;3.70;;;;;;;5.61;73.94;100200.64;1729268;80;21726;-57
2021/10/19 01:44:12;;;;;;;7.87;4.23;;;;;;;5.56;73.65;100210.52;1731454;81;20962;-56
2021/10/19 01:46:38;;;;;;;6.50;4.47;;;;;;;5.48;73.74;100209.80;1725189;81;21089;-56
2021/10/19 01:49:04;;;;;;;6.43;3.27;;;;;;;5.40;73.80;100209.95;1729976;81;20993;-56
2021/10/19 01:51:31;;;;;;;6.87;3.10;;;;;;;5.33;73.81;100206.54;1734209;81;20963;-56
2021/10/19 01:53:57;;;;;;;7.67;3.47;;;;;;;5.27;73.88;100211.13;1727720;82;20926;-57
2021/10/19 01:56:24;;;;;;;4.27;2.77;;;;;;;5.22;73.96;100209.86;1726754;81;20928;-56
2021/10/19 01:58:50;;;;;;;4.23;2.20;;;;;;;5.20;74.17;100215.68;1727205;81;21052;-57
2021/10/19 02:01:16;;;;;;;4.47;2.83;;;;;;;5.18;74.21;100216.19;1726909;81;20982;-56
2021/10/19 02:03:43;;;;;;;3.47;2.60;;;;;;;5.17;74.31;100221.09;1727868;82;21009;-56
2021/10/19 02:06:09;;;;;;;5.33;2.67;;;;;;;5.16;74.34;100219.33;1726783;81;20993;-57
2021/10/19 02:08:36;;;;;;;4.23;3.10;;;;;;;5.14;74.30;100218.47;1728040;81;20907;-56
2021/10/19 02:11:03;;;;;;;5.93;2.70;;;;;;;5.10;74.22;100219.45;1729785;81;21270;-57
2021/10/19 02:13:29;;;;;;;6.93;2.83;;;;;;;5.07;74.30;100220.84;1730072;81;21385;-56
2021/10/19 02:15:57;;;;;;;3.53;3.20;;;;;;;5.03;74.19;100222.23;1729534;81;21420;-57
2021/10/19 02:18:24;;;;;;;5.93;3.23;;;;;;;4.98;74.16;100226.34;1726086;81;21053;-56
2021/10/19 02:20:50;;;;;;;3.97;2.30;;;;;;;4.92;74.14;100235.34;1727135;81;21065;-56
2021/10/19 02:23:16;;;;;;;3.53;2.40;;;;;;;4.88;74.26;100234.07;1729298;81;21116;-56
2021/10/19 02:25:43;;;;;;;5.23;2.20;;;;;;;4.84;74.33;100241.27;1730539;81;21054;-55
2021/10/19 02:28:09;;;;;;;6.10;2.10;;;;;;;4.80;74.49;100240.87;1721451;81;21038;-56
2021/10/19 02:30:36;;;;;;;5.50;1.83;;;;;;;4.80;74.77;100245.33;1724289;81;21072;-57
2021/10/19 02:33:02;;;;;;;6.03;2.20;;;;;;;4.81;74.87;100243.09;1722481;81;21562;-56
2021/10/19 02:35:29;;;;;;;5.83;1.77;;;;;;;4.81;74.89;100249.30;1718898;82;21193;-57
2021/10/19 02:37:57;;;;;;;5.23;2.73;;;;;;;4.82;74.92;100250.19;1723681;81;21041;-56
2021/10/19 02:40:24;;;;;;;2.77;2.43;;;;;;;4.80;74.74;100258.21;1717598;81;21138;-57
2021/10/19 02:42:50;;;;;;;3.57;2.10;;;;;;;4.79;74.72;100259.56;1720944;81;21354;-56
2021/10/19 02:45:17;;;;;;;4.80;2.57;;;;;;;4.77;74.81;100260.92;1717324;81;21123;-56
2021/10/19 02:47:43;;;;;;;4.30;2.30;;;;;;;4.75;74.77;100267.20;1717655;81;21608;-55
2021/10/19 02:50:10;;;;;;;6.93;2.97;;;;;;;4.71;74.73;100268.14;1721038;81;21061;-56
2021/10/19 02:52:38;;;;;;;4.10;2.67;;;;;;;4.67;74.78;100281.12;1723136;81;21427;-56
2021/10/19 02:55:07;;;;;;;2.97;1.97;;;;;;;4.63;74.72;100279.39;1727765;81;21435;-55
2021/10/19 02:57:33;;;;;;;5.17;1.80;;;;;;;4.61;74.83;100279.86;1721703;81;20975;-55
2021/10/19 03:00:00;;;;;;;4.50;1.60;;;;;;;4.59;74.86;100281.70;1722757;81;21760;-56
2021/10/19 03:02:26;;;;;;;4.63;1.30;;;;;;;4.55;74.79;100276.40;1720929;81;21433;-56
2021/10/19 03:04:52;;;;;;;2.60;1.73;;;;;;;4.55;74.75;100280.84;1723221;81;20872;-57
2021/10/19 03:07:19;;;;;;;4.17;1.87;;;;;;;4.54;74.68;100280.41;1725052;81;20927;-56
2021/10/19 03:09:45;;;;;;;4.43;1.70;;;;;;;4.51;74.68;100278.66;1721126;81;20999;-55
2021/10/19 03:12:11;;;;;;;4.33;2.40;;;;;;;4.51;74.79;100285.33;1715790;81;21217;-55
2021/10/19 03:14:37;;;;;;;3.37;1.90;;;;;;;4.49;74.80;100276.50;1716601;81;21050;-56
2021/10/19 03:17:04;;;;;;;5.03;1.77;;;;;;;4.48;74.67;100279.19;1718080;81;21116;-57
2021/10/19 03:19:30;;;;;;;3.53;1.93;;;;;;;4.44;74.73;100286.78;1720717;81;21476;-55
2021/10/19 03:21:56;;;;;;;4.20;1.93;;;;;;;4.39;74.83;100280.20;1664343;84;22242;-56
2021/10/19 03:24:22;;;;;;;3.63;2.00;;;;;;;4.35;74.84;100281.14;1665448;84;23146;-56
2021/10/19 03:26:49;;;;;;;5.70;2.00;;;;;;;4.34;74.92;100287.84;1661530;84;22309;-56
2021/10/19 03:29:15;;;;;;;4.67;1.50;;;;;;;4.30;74.92;100283.45;1663978;84;21578;-55
2021/10/19 03:31:41;;;;;;;2.97;1.93;;;;;;;4.28;75.02;100283.47;1668827;83;21066;-55
2021/10/19 03:34:07;;;;;;;3.07;1.47;;;;;;;4.28;75.11;100282.58;1720037;81;21121;-56
2021/10/19 03:36:34;;;;;;;2.43;1.50;;;;;;;4.29;75.19;100285.23;1727402;81;21120;-56
2021/10/19 03:39:00;;;;;;;3.23;1.80;;;;;;;4.29;75.20;100291.02;1726541;81;21485;-57
2021/10/19 03:41:26;;;;;;;6.90;1.53;;;;;;;4.28;75.21;100296.79;1691380;82;21126;-56
2021/10/19 03:43:53;;;;;;;7.23;1.50;;;;;;;4.28;75.26;100299.91;1723059;80;21140;-55
2021/10/19 03:46:19;;;;;;;4.53;1.87;;;;;;;4.25;75.19;100295.52;1727132;81;21034;-56
2021/10/19 03:48:45;;;;;;;3.07;2.63;;;;;;;4.21;75.13;100296.45;1727230;82;21538;-56
2021/10/19 03:51:12;;;;;;;3.90;2.63;;;;;;;4.16;75.09;100303.19;1721891;80;21421;-55
2021/10/19 03:53:38;;;;;;;5.90;2.07;;;;;;;4.12;75.05;100295.24;1723157;81;21447;-55
2021/10/19 03:56:05;;;;;;;4.73;1.90;;;;;;;4.09;75.04;100307.26;1722173;80;21066;-56
2021/10/19 03:58:33;;;;;;;3.53;1.40;;;;;;;4.07;75.03;100311.30;1726308;81;21057;-55
2021/10/19 04:00:59;;;;;;;2.80;1.20;;;;;;;4.05;75.04;100310.44;1732373;80;22094;-56
2021/10/19 04:03:25;;;;;;;5.97;2.00;;;;;;;4.05;75.07;100313.10;1728984;82;20974;-54
2021/10/19 04:05:52;;;;;;;7.20;1.50;;;;;;;4.03;74.94;100320.67;1729647;82;20986;-55
2021/10/19 04:08:18;;;;;;;3.03;1.50;;;;;;;4.01;74.88;100318.47;1727712;82;21334;-55
2021/10/19 04:10:45;;;;;;;2.43;1.63;;;;;;;3.99;74.96;100320.30;1729679;81;21558;-56
2021/10/19 04:13:11;;;;;;;3.57;1.77;;;;;;;3.98;75.01;100327.85;1725217;82;21193;-54
2021/10/19 04:15:38;;;;;;;4.10;1.47;;;;;;;3.97;74.81;100335.41;1723393;82;21133;-56
2021/10/19 04:18:04;;;;;;;8.03;2.73;;;;;;;3.94;74.83;100335.44;1720029;80;21073;-56
2021/10/19 04:20:31;;;;;;;4.23;2.27;;;;;;;3.90;74.88;100339.94;1731676;82;21176;-54
2021/10/19 04:22:58;;;;;;;3.80;1.93;;;;;;;3.85;75.03;100339.09;1731175;82;21108;-55
2021/10/19 04:25:24;;;;;;;3.47;1.83;;;;;;;3.84;74.98;100348.42;1726334;82;22687;-54
2021/10/19 04:27:50;;;;;;;2.90;1.23;;;;;;;3.79;74.96;100341.38;1664812;85;21129;-54
2021/10/19 04:30:18;;;;;;;2.10;1.03;;;;;;;3.76;75.04;100346.73;1667844;84;21093;-56
2021/10/19 04:32:45;;;;;;;4.13;1.23;;;;;;;3.76;75.04;100346.73;1723689;82;21129;-55
2021/10/19 04:35:13;;;;;;;2.57;1.40;;;;;;;3.77;75.07;100350.28;1723239;82;21125;-54
2021/10/19 04:37:39;;;;;;;1.97;1.30;;;;;;;3.79;75.11;100349.82;1727791;82;20883;-54
2021/10/19 04:40:07;;;;;;;2.80;1.43;;;;;;;3.79;75.11;100357.36;1729214;82;21382;-54
2021/10/19 04:42:37;;;;;;;5.73;1.80;;;;;;;3.78;75.07;100362.25;1730555;82;21049;-55
2021/10/19 04:48:04;;;;;;;3.20;1.73;;;;;;;3.82;74.98;100359.12;1874867;75;26497;-55
2021/10/19 04:50:31;;;;;;;3.27;1.70;;;;;;;3.75;74.91;100366.27;1802278;77;21060;-55
2021/10/19 04:52:58;;;;;;;3.47;2.37;;;;;;;3.74;74.92;100368.97;1811156;77;21187;-55
2021/10/19 04:55:24;;;;;;;1.83;1.63;;;;;;;3.72;74.87;100369.43;1807110;77;20930;-54
2021/10/19 04:57:52;;;;;;;2.50;1.60;;;;;;;3.70;74.79;100376.09;1812434;77;20840;-55
2021/10/19 05:00:18;;;;;;;4.37;1.23;;;;;;;3.67;74.69;100366.80;1811677;77;20859;-54
2021/10/19 05:02:48;;;;;;;2.60;1.50;;;;;;;3.68;74.54;100369.02;1768197;78;21782;-55
2021/10/19 05:05:14;;;;;;;2.67;1.17;;;;;;;3.67;74.51;100374.78;1771888;78;21793;-56
2021/10/19 05:07:42;;;;;;;3.93;1.70;;;;;;;3.70;74.54;100381.42;1772076;78;20949;-55
2021/10/19 05:10:08;;;;;;;3.40;1.87;;;;;;;3.72;74.45;100379.63;1767438;78;21697;-56
2021/10/19 05:12:35;;;;;;;11.20;4.93;;;;;;;3.77;74.50;100380.45;1760578;79;20891;-56
2021/10/19 05:15:03;;;;;;;16.67;9.10;;;;;;;3.85;74.50;100380.81;1759638;79;20887;-55
2021/10/19 05:17:29;;;;;;;29.87;13.47;;;;;;;3.92;74.46;100385.16;1756534;79;21114;-56
2021/10/19 05:19:56;;;;;;;36.77;17.00;;;;;;;3.97;74.46;100382.02;1756120;79;20954;-55
2021/10/19 05:22:24;;;;;;;33.17;17.00;;;;;;;4.06;74.44;100392.57;1757837;79;20954;-56
2021/10/19 05:24:51;;;;;;;33.50;17.43;;;;;;;4.14;74.40;100393.36;1758776;79;20962;-56
2021/10/19 05:27:17;;;;;;;31.73;17.23;;;;;;;4.22;74.32;100396.81;1752749;79;20958;-56
2021/10/19 05:29:44;;;;;;;32.63;15.83;;;;;;;4.29;74.13;100401.61;1754309;79;21050;-56
2021/10/19 05:32:10;;;;;;;29.63;13.83;;;;;;;4.34;74.09;100405.97;1747741;79;20969;-56
2021/10/19 05:34:36;;;;;;;19.60;10.60;;;;;;;4.39;73.97;100401.48;1739559;81;20977;-56
2021/10/19 05:37:03;;;;;;;22.17;10.40;;;;;;;4.48;73.94;100412.48;1735891;81;21385;-56
2021/10/19 05:39:31;;;;;;;19.80;10.03;;;;;;;4.54;73.84;100409.27;1736833;81;21109;-56
2021/10/19 05:41:59;;;;;;;17.10;9.40;;;;;;;4.64;73.71;100413.15;1734524;81;21271;-55
2021/10/19 05:44:26;;;;;;;16.13;8.10;;;;;;;4.72;73.61;100413.47;1732613;81;22421;-56
2021/10/19 05:46:52;;;;;;;14.60;8.33;;;;;;;4.81;73.53;100417.80;1734279;80;21575;-57
2021/10/19 05:49:19;;;;;;;14.57;6.80;;;;;;;4.88;73.42;100418.12;1774894;79;21028;-56
2021/10/19 05:51:46;;;;;;;13.60;7.17;;;;;;;4.97;73.35;100418.45;1765292;80;22640;-56
2021/10/19 05:54:13;;;;;;;14.67;5.70;;;;;;;5.04;73.17;100420.99;1760914;80;22275;-56
2021/10/19 05:56:40;;;;;;;7.57;4.30;;;;;;;5.09;72.99;100423.61;1763931;79;21528;-56
2021/10/19 05:59:06;;;;;;;8.27;4.17;;;;;;;5.12;72.86;100427.09;1764047;78;21572;-56
2021/10/19 06:01:33;;;;;;;9.10;3.20;;;;;;;5.13;72.81;100422.19;1738124;81;21844;-56
2021/10/19 06:03:59;;;;;;;8.63;2.90;;;;;;;5.14;72.78;100419.95;1762603;79;21127;-56
2021/10/19 06:06:25;;;;;;;9.30;1.97;;;;;;;5.16;72.79;100423.94;1767929;79;21056;-56
2021/10/19 06:08:52;;;;;;;2.37;1.77;;;;;;;5.19;72.75;100421.23;1740484;81;21054;-57
2021/10/19 06:11:19;;;;;;;3.50;2.00;;;;;;;5.22;72.76;100418.05;1758095;80;21135;-55
2021/10/19 06:13:46;;;;;;;3.67;1.67;;;;;;;5.28;72.63;100426.39;1732901;81;21586;-57
2021/10/19 06:16:12;;;;;;;5.97;1.80;;;;;;;5.37;72.53;100429.37;1741515;80;22735;-56
2021/10/19 06:18:39;;;;;;;2.03;1.63;;;;;;;5.45;72.46;100424.33;1735222;81;21111;-56
2021/10/19 06:21:05;;;;;;;4.77;2.30;;;;;;;5.53;72.35;100429.58;1765655;80;21459;-56
2021/10/19 06:23:32;;;;;;;6.17;2.23;;;;;;;5.61;72.13;100435.66;1764048;79;21062;-57
2021/10/19 06:25:58;;;;;;;4.80;2.63;;;;;;;5.67;71.84;100431.54;1741042;81;21131;-57
2021/10/19 06:28:24;;;;;;;6.43;2.20;;;;;;;5.74;71.71;100436.31;1742046;80;22249;-57
2021/10/19 06:30:51;;;;;;;4.53;2.43;;;;;;;5.77;71.41;100433.14;1735396;81;21487;-57
2021/10/19 06:33:17;;;;;;;3.63;1.80;;;;;;;5.81;71.31;100432.16;1766889;78;21032;-56
2021/10/19 06:35:44;;;;;;;5.43;2.63;;;;;;;5.86;71.23;100435.66;1760892;78;22312;-57
2021/10/19 06:38:10;;;;;;;6.83;2.47;;;;;;;5.91;71.00;100428.91;1736200;80;21512;-57
2021/10/19 06:40:37;;;;;;;5.63;1.50;;;;;;;5.95;70.72;100430.63;1745716;80;21076;-56
2021/10/19 06:43:05;;;;;;;1.80;1.43;;;;;;;5.97;70.52;100431.00;1748465;80;21107;-58
2021/10/19 06:45:32;;;;;;;4.53;1.50;;;;;;;6.00;70.27;100428.73;1746966;80;21060;-56
2021/10/19 06:47:59;;;;;;;2.93;1.17;;;;;;;6.07;70.25;100433.93;1744710;80;21099;-55
2021/10/19 06:50:25;;;;;;;2.63;1.10;;;;;;;6.14;69.75;100433.80;1749673;80;21068;-55
2021/10/19 06:52:51;;;;;;;4.17;1.43;;;;;;;6.19;69.51;100430.61;1751819;80;21261;-57
2021/10/19 06:55:22;;;;;;;2.33;1.40;;;;;;;6.23;69.39;100437.64;1746780;80;21456;-56
2021/10/19 06:57:46;;;;;;;3.97;1.70;;;;;;;6.28;69.25;100439.78;1745910;77;21079;-57
2021/10/19 07:00:15;;;;;;;2.77;1.20;;;;;;;6.32;68.99;100438.34;1751187;80;21107;-58
2021/10/19 07:02:46;;;;;;;2.97;1.50;;;;;;;6.33;68.83;100434.76;1747386;80;21059;-57
2021/10/19 07:05:14;;;;;;;7.17;1.83;;;;;;;6.36;68.87;100429.81;1746600;80;21154;-57
2021/10/19 07:07:41;;;;;;;6.10;1.63;;;;;;;6.41;68.63;100428.80;1752915;80;21130;-56
2021/10/19 07:10:09;;;;;;;1.70;1.10;;;;;;;6.44;68.49;100434.55;1744729;80;21071;-57
2021/10/19 07:12:39;;;;;;;3.03;1.50;;;;;;;6.47;68.06;100437.14;1748236;80;20934;-57
2021/10/19 07:15:07;;;;;;;3.70;1.53;;;;;;;6.49;67.89;100439.33;1748589;80;21111;-56
2021/10/19 07:17:33;;;;;;;1.70;0.90;;;;;;;6.52;67.51;100440.61;1749858;80;20933;-56
2021/10/19 07:19:59;;;;;;;6.63;1.50;;;;;;;6.55;67.59;100444.55;1752006;80;21037;-57
2021/10/19 07:22:28;;;;;;;2.73;1.17;;;;;;;6.59;67.22;100439.56;1747814;80;21167;-56
2021/10/19 07:24:54;;;;;;;2.83;1.10;;;;;;;6.63;67.01;100439.94;1746744;80;21521;-57
2021/10/19 07:27:20;;;;;;;4.87;1.60;;;;;;;6.68;66.98;100433.14;1746168;80;21131;-57
2021/10/19 07:29:46;;;;;;;1.87;0.90;;;;;;;6.74;66.84;100435.67;1750083;80;21649;-57
2021/10/19 07:32:14;;;;;;;3.00;0.90;;;;;;;6.82;66.78;100433.70;1748773;80;21625;-57
2021/10/19 07:34:41;;;;;;;3.23;0.80;;;;;;;6.90;66.59;100435.75;1749024;80;21075;-57
2021/10/19 07:37:07;;;;;;;2.87;0.90;;;;;;;6.97;66.25;100433.84;1749469;80;20980;-56
2021/10/19 07:39:36;;;;;;;1.60;0.90;;;;;;;7.02;66.00;100439.96;1744131;80;21569;-57
2021/10/19 07:42:03;;;;;;;1.30;1.00;;;;;;;7.07;65.80;100426.00;1743537;80;21690;-57
2021/10/19 07:44:29;;;;;;;10.10;0.80;;;;;;;7.14;65.52;100431.20;1749578;80;21132;-57
2021/10/19 07:46:55;;;;;;;2.17;0.80;;;;;;;7.21;65.43;100438.62;1748497;79;20933;-57
2021/10/19 07:49:22;;;;;;;2.90;1.27;;;;;;;7.29;65.26;100435.30;1737433;80;20905;-56
2021/10/19 07:51:48;;;;;;;5.00;1.00;;;;;;;7.37;64.97;100432.44;1762386;79;20909;-58
2021/10/19 07:54:14;;;;;;;2.70;0.70;;;;;;;7.45;64.63;100434.02;1744666;79;20917;-58
2021/10/19 07:56:43;;;;;;;2.13;0.70;;;;;;;7.52;64.27;100439.63;1724159;79;21144;-57
2021/10/19 07:59:09;;;;;;;0.90;0.60;;;;;;;7.60;63.93;100445.67;1749287;79;20913;-58
2021/10/19 08:01:41;;;;;;;2.80;0.53;;;;;;;7.71;63.22;100440.52;1746023;79;20922;-57
2021/10/19 08:04:04;;;;;;;3.13;0.53;;;;;;;7.78;62.94;100442.11;1749016;79;20972;-57
2021/10/19 08:06:30;;;;;;;1.63;0.60;;;;;;;7.85;62.58;100443.24;1753519;79;22110;-56
2021/10/19 08:08:57;;;;;;;2.40;0.50;;;;;;;7.94;61.71;100440.78;1741840;79;21424;-58
2021/10/19 08:11:23;;;;;;;1.43;0.80;;;;;;;7.96;61.08;100449.22;1743254;79;21811;-56
2021/10/19 08:13:53;;;;;;;0.90;0.53;;;;;;;7.98;60.66;100446.50;1749367;79;21497;-56
2021/10/19 08:16:19;;;;;;;1.13;0.50;;;;;;;8.01;60.54;100448.20;1739507;79;20929;-56
2021/10/19 08:18:45;;;;;;;2.60;0.60;;;;;;;8.03;60.14;100444.56;1739657;79;20933;-56
2021/10/19 08:21:11;;;;;;;0.90;0.60;;;;;;;8.06;59.88;100451.65;1738069;79;21069;-57
2021/10/19 08:23:37;;;;;;;1.47;0.50;;;;;;;8.09;59.33;100453.77;1746646;79;20926;-56
2021/10/19 08:26:04;;;;;;;0.87;0.50;;;;;;;8.11;59.42;100450.59;1741456;79;20884;-57
2021/10/19 08:28:31;;;;;;;1.23;0.50;;;;;;;8.14;59.30;100450.98;1740175;79;20941;-57
2021/10/19 08:30:58;;;;;;;0.57;0.33;;;;;;;8.18;58.50;100452.18;1741610;79;20949;-57
2021/10/19 08:33:24;;;;;;;0.80;0.33;;;;;;;8.25;58.08;100455.60;1740466;79;21090;-57
2021/10/19 08:35:51;;;;;;;0.80;0.40;;;;;;;8.30;57.12;100457.68;1739911;79;20989;-54
2021/10/19 08:38:18;;;;;;;2.20;0.40;;;;;;;8.33;56.92;100463.89;1740571;79;21128;-55
2021/10/19 08:40:44;;;;;;;1.77;0.40;;;;;;;8.37;56.09;100456.62;1749157;79;21145;-55
2021/10/19 08:43:11;;;;;;;0.90;0.30;;;;;;;8.42;56.23;100464.55;1743866;79;21708;-54
2021/10/19 08:45:38;;;;;;;0.40;0.20;;;;;;;8.48;56.03;100463.91;1735943;79;21160;-56
2021/10/19 08:48:07;;;;;;;0.40;0.20;;;;;;;8.57;55.55;100462.31;1742077;79;21115;-56
2021/10/19 08:50:32;;;;;;;4.25;1.35;;;;;;;8.65;55.04;100460.74;1765746;79;21514;-54
2021/10/19 08:52:58;;;;;;;1.20;0.30;;;;;;;8.72;54.85;100468.56;1746614;79;21502;-55
2021/10/19 08:55:25;;;;;;;2.55;0.20;;;;;;;8.79;54.50;100465.23;1745528;79;21071;-55
2021/10/19 08:57:51;;;;;;;0.98;0.10;;;;;;;8.82;53.37;100468.30;1746372;79;21053;-56
2021/10/19 09:00:18;;;;;;;0.40;0.20;;;;;;;8.80;53.37;100464.31;1725136;80;21147;-55
2021/10/19 09:02:48;;;;;;;0.50;0.20;;;;;;;8.79;53.26;100467.03;1749029;79;21072;-54
2021/10/19 09:05:25;;;;;;;0.20;0.08;;;;;;;8.79;53.24;100470.59;1752501;79;20953;-56
2021/10/19 09:07:59;;;;;;;1.05;0.10;;;;;;;8.80;52.61;100478.19;1752710;79;20886;-54
2021/10/19 09:10:34;;;;;;;1.10;0.20;;;;;;;8.80;51.92;100472.36;1744400;79;21603;-55
2021/10/19 09:13:05;;;;;;;0.72;0.42;;;;;;;8.78;51.95;100468.83;1689463;82;21108;-56
2021/10/19 09:15:35;;;;;;;0.40;0.20;;;;;;;8.76;52.27;100471.17;1716775;81;21426;-55
2021/10/19 09:18:04;;;;;;;0.25;0.10;;;;;;;8.79;51.90;100463.00;1733865;81;21143;-55
2021/10/19 09:20:37;;;;;;;1.23;0.20;;;;;;;8.80;51.57;100465.66;1712781;81;21088;-56
2021/10/19 09:23:04;;;;;;;0.40;0.10;;;;;;;8.82;51.03;100469.64;1712885;81;21128;-55
2021/10/19 09:25:40;;;;;;;0.30;0.10;;;;;;;8.83;51.24;100464.23;1712295;81;21093;-55
2021/10/19 09:28:09;;;;;;;2.83;0.37;;;;;;;8.88;50.94;100466.76;1711351;81;21488;-55
2021/10/19 09:30:50;;;;;;;0.20;0.10;;;;;;;8.91;51.12;100463.53;1715816;81;21101;-57
2021/10/19 09:33:18;;;;;;;0.42;0.10;;;;;;;8.98;50.76;100451.67;1714556;81;21065;-55
2021/10/19 09:35:51;;;;;;;0.62;0.20;;;;;;;9.03;50.56;100453.74;1717954;81;21077;-55
2021/10/19 09:38:17;;;;;;;0.40;0.20;;;;;;;9.11;50.13;100465.59;1714632;81;22601;-56
2021/10/19 09:40:50;;;;;;;0.42;0.10;;;;;;;9.16;50.25;100451.58;1711889;81;21509;-56
2021/10/19 09:43:20;;;;;;;0.60;0.20;;;;;;;9.24;50.16;100451.33;1711095;81;21090;-57
2021/10/19 09:45:52;;;;;;;0.82;0.20;;;;;;;9.33;50.33;100444.32;1718125;81;21045;-56
2021/10/19 09:48:31;;;;;;;0.42;0.17;;;;;;;9.42;50.22;100457.45;1723956;79;21135;-55
2021/10/19 09:50:52;;;;;;;1.07;0.20;;;;;;;9.52;49.78;100454.89;1739483;79;22447;-56
2021/10/19 09:53:18;;;;;;;0.85;0.10;;;;;;;9.61;49.35;100458.59;1740188;79;21067;-56
2021/10/19 09:55:50;;;;;;;1.95;0.20;;;;;;;9.69;47.87;100456.56;1735619;79;21422;-57
2021/10/19 09:58:20;;;;;;;0.23;0.10;;;;;;;9.68;47.50;100446.73;1738600;79;21374;-57
2021/10/19 10:00:46;;;;;;;0.40;0.20;;;;;;;9.67;47.19;100455.72;1735189;79;21123;-56
2021/10/19 10:03:13;;;;;;;0.30;0.17;;;;;;;9.68;46.92;100444.51;1744501;79;21052;-56
2021/10/19 10:05:40;;;;;;;0.60;0.20;;;;;;;9.70;47.02;100446.19;1740959;79;21080;-56
2021/10/19 10:08:11;;;;;;;3.12;0.20;;;;;;;9.76;47.13;100444.66;1735644;79;21080;-56
2021/10/19 10:10:37;;;;;;;0.50;0.13;;;;;;;9.80;47.33;100438.70;1741091;79;21476;-55
2021/10/19 10:13:06;;;;;;;0.40;0.20;;;;;;;9.86;46.97;100437.16;1746597;79;21554;-55
2021/10/19 10:15:34;;;;;;;0.30;0.20;;;;;;;9.91;46.76;100443.25;1736939;79;21063;-55
2021/10/19 10:18:05;;;;;;;1.25;0.20;;;;;;;9.94;46.30;100444.97;1744352;79;21057;-56
2021/10/19 10:20:37;;;;;;;0.40;0.20;;;;;;;9.94;46.27;100428.36;1746107;79;20973;-55
2021/10/19 10:23:23;;;;;;;0.50;0.20;;;;;;;9.94;46.60;100433.74;1747676;79;21320;-56
2021/10/19 10:25:57;;;;;;;0.40;0.20;;;;;;;9.98;46.09;100430.46;1699340;81;21928;-55
2021/10/19 10:28:33;;;;;;;1.47;0.20;;;;;;;10.01;46.12;100427.67;1730095;79;21065;-56
2021/10/19 10:31:02;;;;;;;0.57;0.28;;;;;;;10.06;46.49;100434.64;1747642;79;21080;-57
2021/10/19 10:33:36;;;;;;;4.12;0.20;;;;;;;10.10;46.32;100424.66;1744190;79;21135;-56
2021/10/19 10:36:06;;;;;;;0.60;0.15;;;;;;;10.13;45.37;100431.26;1753150;79;20965;-57
2021/10/19 10:38:35;;;;;;;0.50;0.20;;;;;;;10.14;44.84;100420.91;1736366;79;21120;-57
2021/10/19 10:41:12;;;;;;;1.47;0.20;;;;;;;10.15;44.41;100421.33;1737189;79;21132;-58
2021/10/19 10:43:38;;;;;;;0.50;0.30;;;;;;;10.18;43.47;100415.88;1737791;79;20981;-57
2021/10/19 10:46:19;;;;;;;0.42;0.20;;;;;;;10.18;43.26;100415.88;1737098;79;21009;-57
2021/10/19 10:48:44;;;;;;;0.50;0.40;;;;;;;10.18;43.81;100419.92;1745129;79;20954;-56
2021/10/19 10:51:13;;;;;;;4.00;0.37;;;;;;;10.20;43.83;100418.06;1743491;79;21551;-57
2021/10/19 10:53:42;;;;;;;0.40;0.20;;;;;;;10.21;43.69;100417.98;1738645;79;21564;-56
2021/10/19 10:56:10;;;;;;;1.85;0.30;;;;;;;10.21;43.87;100412.59;1736674;79;21048;-57
2021/10/19 10:58:38;;;;;;;0.57;0.20;;;;;;;10.20;42.78;100417.59;1748111;79;21602;-55
2021/10/19 11:01:23;;;;;;;0.40;0.17;;;;;;;10.13;42.64;100415.12;1736774;79;20997;-57
2021/10/19 11:03:52;;;;;;;0.42;0.20;;;;;;;10.11;42.25;100422.39;1732700;79;21126;-58
2021/10/19 11:06:21;;;;;;;2.30;0.25;;;;;;;10.07;42.21;100414.00;1742878;79;20961;-58
2021/10/19 11:08:47;;;;;;;2.92;0.20;;;;;;;10.07;42.16;100409.97;1735348;80;20929;-58
2021/10/19 11:11:18;;;;;;;1.07;0.40;;;;;;;10.07;42.63;100409.97;1756967;79;20972;-57
2021/10/19 11:14:01;;;;;;;2.60;0.40;;;;;;;10.07;42.79;100394.70;1740265;79;21523;-58
2021/10/19 11:16:48;;;;;;;1.77;0.25;;;;;;;10.11;43.00;100404.44;1751608;79;21123;-58
2021/10/19 11:19:24;;;;;;;1.85;0.20;;;;;;;10.15;42.54;100399.81;1739053;80;21392;-58
2021/10/19 11:21:59;;;;;;;0.53;0.20;;;;;;;10.14;42.83;100402.96;1741376;79;20973;-57
2021/10/19 11:24:28;;;;;;;0.30;0.20;;;;;;;10.16;43.32;100406.48;1741593;79;20985;-57
2021/10/19 11:26:54;;;;;;;0.50;0.20;;;;;;;10.18;43.09;100405.12;1752016;79;20997;-57
2021/10/19 11:29:21;;;;;;;0.37;0.25;;;;;;;10.20;42.90;100401.45;1736897;79;22196;-57
2021/10/19 11:31:48;;;;;;;0.33;0.20;;;;;;;10.20;42.50;100394.73;1737161;79;21392;-57
2021/10/19 11:34:14;;;;;;;0.30;0.20;;;;;;;10.23;42.31;100395.06;1744307;79;20896;-55
2021/10/19 11:36:40;;;;;;;0.40;0.20;;;;;;;10.25;41.69;100398.58;1745323;79;20982;-56